createdAt,value
2023-05-23T00:01:17.236Z,97632.00
2023-05-23T00:03:45.837Z,97633.53
2023-05-23T00:06:15.546Z,97633.13
2023-05-23T00:08:43.713Z,97639.09
2023-05-23T00:11:13.489Z,97628.88
2023-05-23T00:13:41.747Z,97634.84
2023-05-23T00:16:10.898Z,97640.59
2023-05-23T00:18:40.330Z,97636.56
2023-05-23T00:21:09.962Z,97652.16
2023-05-23T00:23:42.519Z,97642.31
2023-05-23T00:26:10.816Z,97653.13
2023-05-23T00:28:39.117Z,97644.75
2023-05-23T00:31:07.597Z,97647.19
2023-05-23T00:33:36.590Z,97645.69
2023-05-23T00:36:05.080Z,97661.50
2023-05-23T00:38:33.260Z,97652.56
2023-05-23T00:41:03.662Z,97652.94
2023-05-23T00:43:31.964Z,97656.28
2023-05-23T00:46:00.674Z,97650.81
2023-05-23T00:48:29.423Z,97656.28
2023-05-23T00:50:58.922Z,97680.00
2023-05-23T00:53:28.157Z,97666.53
2023-05-23T00:55:56.838Z,97661.59
2023-05-23T00:58:26.850Z,97674.22
2023-05-23T01:00:55.922Z,97673.56
2023-05-23T01:03:29.101Z,97676.16
2023-05-23T01:05:57.597Z,97660.28
2023-05-23T01:08:25.791Z,97679.84
2023-05-23T01:10:54.513Z,97677.66
2023-05-23T01:13:34.598Z,97670.03
2023-05-23T01:16:08.285Z,97673.81
2023-05-23T01:18:42.015Z,97679.00
2023-05-23T01:21:14.382Z,97671.69
2023-05-23T01:24:11.148Z,97667.16
2023-05-23T01:26:56.690Z,97672.16
2023-05-23T01:29:29.841Z,97667.31
2023-05-23T01:32:00.596Z,97672.06
2023-05-23T01:34:32.083Z,97675.59
2023-05-23T01:37:00.543Z,97666.44
2023-05-23T01:39:29.011Z,97670.00
2023-05-23T01:41:57.600Z,97675.38
2023-05-23T01:44:27.516Z,97676.38
2023-05-23T01:46:55.837Z,97668.09
2023-05-23T01:49:25.768Z,97673.31
2023-05-23T01:51:54.817Z,97675.94
2023-05-23T01:54:23.244Z,97676.59
2023-05-23T01:56:52.245Z,97673.53
2023-05-23T01:59:20.663Z,97680.69
2023-05-23T02:01:50.704Z,97674.47
2023-05-23T02:04:19.058Z,97671.28
2023-05-23T02:06:48.058Z,97686.53
2023-05-23T02:09:16.748Z,97682.28
2023-05-23T02:11:44.975Z,97676.50
2023-05-23T02:14:13.274Z,97673.25
2023-05-23T02:16:41.523Z,97682.28
2023-05-23T02:19:11.423Z,97678.19
2023-05-23T02:21:39.693Z,97678.44
2023-05-23T02:24:08.005Z,97679.84
2023-05-23T02:26:36.320Z,97677.66
2023-05-23T02:29:04.573Z,97685.81
2023-05-23T02:31:32.830Z,97667.69
2023-05-23T02:34:01.030Z,97680.13
2023-05-23T02:36:33.608Z,97684.94
2023-05-23T02:39:01.936Z,97683.47
2023-05-23T02:41:30.314Z,97666.44
2023-05-23T02:43:58.624Z,97689.81
2023-05-23T02:46:27.153Z,97688.25
2023-05-23T02:48:55.532Z,97692.69
2023-05-23T02:51:24.144Z,97698.78
2023-05-23T02:53:53.863Z,97702.91
2023-05-23T02:56:22.454Z,97700.56
2023-05-23T02:58:51.049Z,97704.25
2023-05-23T03:01:19.545Z,97695.84
2023-05-23T03:03:48.046Z,97708.78
2023-05-23T03:06:17.157Z,97708.94
2023-05-23T03:08:45.457Z,97718.00
2023-05-23T03:11:15.013Z,97717.66
2023-05-23T03:13:43.323Z,97716.00
2023-05-23T03:16:12.548Z,97726.72
2023-05-23T03:18:43.103Z,97720.75
2023-05-23T03:21:11.342Z,97718.09
2023-05-23T03:23:39.507Z,97725.44
2023-05-23T03:26:08.057Z,97725.00
2023-05-23T03:28:37.797Z,97734.41
2023-05-23T03:31:06.011Z,97728.53
2023-05-23T03:33:34.343Z,97730.81
2023-05-23T03:36:02.509Z,97730.47
2023-05-23T03:38:31.318Z,97693.94
2023-05-23T03:40:59.958Z,97736.59
2023-05-23T03:43:28.184Z,97742.69
2023-05-23T03:45:58.236Z,97748.47
2023-05-23T03:48:26.703Z,97757.03
2023-05-23T03:50:54.992Z,97755.31
2023-05-23T03:53:23.202Z,97751.66
2023-05-23T03:55:54.079Z,97756.59
2023-05-23T03:58:22.862Z,97756.75
2023-05-23T04:00:53.356Z,97754.25
2023-05-23T04:03:23.466Z,97757.03
2023-05-23T04:05:52.442Z,97752.66
2023-05-23T04:08:22.364Z,97753.66
2023-05-23T04:10:50.736Z,97751.81
2023-05-23T04:13:19.230Z,97742.09
2023-05-23T04:15:48.259Z,97742.59
2023-05-23T04:18:17.604Z,97758.69
2023-05-23T04:20:48.538Z,97760.19
2023-05-23T04:23:17.115Z,97759.84
2023-05-23T04:25:45.699Z,97763.78
2023-05-23T04:28:14.238Z,97771.16
2023-05-23T04:30:42.788Z,97769.06
2023-05-23T04:33:11.893Z,97754.84
2023-05-23T04:35:41.145Z,97767.91
2023-05-23T04:38:11.399Z,97765.16
2023-05-23T04:40:39.583Z,97777.97
2023-05-23T04:43:09.611Z,97770.66
2023-05-23T04:45:38.295Z,97772.50
2023-05-23T04:48:06.756Z,97763.03
2023-05-23T04:50:36.173Z,97787.91
2023-05-23T04:53:04.468Z,97787.34
2023-05-23T04:55:34.642Z,97785.66
2023-05-23T04:58:03.481Z,97796.16
2023-05-23T05:00:31.855Z,97794.47
2023-05-23T05:03:01.503Z,97795.16
2023-05-23T05:05:29.824Z,97803.94
2023-05-23T05:07:58.111Z,97801.06
2023-05-23T05:10:26.722Z,97796.38
2023-05-23T05:12:57.699Z,97791.84
2023-05-23T05:15:26.264Z,97802.72
2023-05-23T05:17:54.647Z,97798.88
2023-05-23T05:20:23.495Z,97804.56
2023-05-23T05:22:57.758Z,97792.97
2023-05-23T05:25:27.572Z,97792.72
2023-05-23T05:27:58.139Z,97807.22
2023-05-23T05:30:26.678Z,97805.34
2023-05-23T05:32:55.303Z,97806.75
2023-05-23T05:35:23.857Z,97805.06
2023-05-23T05:37:52.637Z,97807.84
2023-05-23T05:40:21.390Z,97803.84
2023-05-23T05:42:50.252Z,97771.38
2023-05-23T05:45:20.388Z,97800.75
2023-05-23T05:47:48.710Z,97811.00
2023-05-23T05:50:17.282Z,97793.41
2023-05-23T05:52:46.114Z,97805.13
2023-05-23T05:55:15.040Z,97811.09
2023-05-23T05:57:43.744Z,97805.97
2023-05-23T06:00:15.652Z,97817.69
2023-05-23T06:02:47.828Z,97817.44
2023-05-23T06:05:17.482Z,97791.31
2023-05-23T06:07:45.973Z,97802.53
2023-05-23T06:10:14.641Z,97815.28
2023-05-23T06:12:45.276Z,97805.06
2023-05-23T06:15:14.937Z,97804.00
2023-05-23T06:17:46.488Z,97812.09
2023-05-23T06:20:15.129Z,97792.88
2023-05-23T06:22:43.973Z,97785.06
2023-05-23T06:25:12.536Z,97812.97
2023-05-23T06:27:40.823Z,97807.19
2023-05-23T06:30:10.609Z,97812.38
2023-05-23T06:32:39.825Z,97817.16
2023-05-23T06:35:11.171Z,97819.28
2023-05-23T06:37:43.687Z,97823.44
2023-05-23T06:40:13.327Z,97820.31
2023-05-23T06:42:42.463Z,97818.13
2023-05-23T06:45:12.828Z,97826.53
2023-05-23T06:47:45.872Z,97820.84
2023-05-23T06:50:16.088Z,97810.94
2023-05-23T06:52:46.970Z,97820.63
2023-05-23T06:55:18.670Z,97815.03
2023-05-23T06:57:50.855Z,97814.47
2023-05-23T07:00:20.680Z,97820.00
2023-05-23T07:02:50.157Z,97825.72
2023-05-23T07:05:22.339Z,97825.84
2023-05-23T07:07:51.967Z,97825.09
2023-05-23T07:10:20.574Z,97839.50
2023-05-23T07:12:49.419Z,97837.09
2023-05-23T07:15:18.296Z,97850.84
2023-05-23T07:17:46.772Z,97852.66
2023-05-23T07:20:15.695Z,97847.53
2023-05-23T07:22:46.926Z,97828.19
2023-05-23T07:25:15.671Z,97848.91
2023-05-23T07:27:44.662Z,97846.59
2023-05-23T07:30:14.728Z,97845.28
2023-05-23T07:32:43.390Z,97856.06
2023-05-23T07:35:11.877Z,97842.94
2023-05-23T07:37:40.532Z,97851.72
2023-05-23T07:40:11.339Z,97850.84
2023-05-23T07:42:39.471Z,97854.94
2023-05-23T07:45:09.283Z,97838.75
2023-05-23T07:47:38.425Z,97841.88
2023-05-23T07:50:07.829Z,97849.03
2023-05-23T07:52:36.708Z,97852.72
2023-05-23T07:55:05.600Z,97862.41
2023-05-23T07:57:36.335Z,97842.78
2023-05-23T08:00:07.468Z,97861.00
2023-05-23T08:02:36.792Z,97867.06
2023-05-23T08:05:06.485Z,97863.91
2023-05-23T08:07:34.816Z,97868.31
2023-05-23T08:10:03.528Z,97876.91
2023-05-23T08:12:32.788Z,97858.59
2023-05-23T08:15:04.286Z,97877.19
2023-05-23T08:17:33.434Z,97865.72
2023-05-23T08:20:04.975Z,97844.56
2023-05-23T08:22:33.622Z,97849.19
2023-05-23T08:25:03.251Z,97853.69
2023-05-23T08:27:32.516Z,97847.63
2023-05-23T08:30:03.582Z,97852.06
2023-05-23T08:32:32.414Z,97844.31
2023-05-23T08:35:02.296Z,97855.66
2023-05-23T08:37:31.274Z,97867.63
2023-05-23T08:40:00.376Z,97855.22
2023-05-23T08:42:30.707Z,97852.84
2023-05-23T08:44:59.625Z,97864.16
2023-05-23T08:47:35.820Z,97866.78
2023-05-23T08:50:08.495Z,97856.97
2023-05-23T08:52:43.481Z,97860.28
2023-05-23T08:55:13.858Z,97856.50
2023-05-23T08:57:44.537Z,97867.63
2023-05-23T09:00:16.927Z,97864.63
2023-05-23T09:02:47.797Z,97869.50
2023-05-23T09:05:16.523Z,97850.59
2023-05-23T09:07:48.526Z,97874.66
2023-05-23T09:10:18.741Z,97858.44
2023-05-23T09:12:49.183Z,97879.63
2023-05-23T09:15:18.796Z,97872.00
2023-05-23T09:17:49.230Z,97874.88
2023-05-23T09:20:20.384Z,97884.31
2023-05-23T09:22:51.055Z,97879.81
2023-05-23T09:25:20.366Z,97880.66
2023-05-23T09:27:49.248Z,97885.22
2023-05-23T09:30:20.401Z,97876.59
2023-05-23T09:33:05.427Z,97865.41
2023-05-23T09:35:36.185Z,97888.75
2023-05-23T09:38:05.093Z,97888.69
2023-05-23T09:40:35.476Z,97870.22
2023-05-23T09:43:05.953Z,97872.63
2023-05-23T09:45:41.088Z,97862.19
2023-05-23T09:48:14.879Z,97897.06
2023-05-23T09:50:44.218Z,97896.25
2023-05-23T09:53:37.076Z,97893.94
2023-05-23T09:56:06.811Z,97882.81
2023-05-23T09:58:43.097Z,97904.16
2023-05-23T10:01:15.203Z,97901.13
2023-05-23T10:03:56.685Z,97919.06
2023-05-23T10:06:33.604Z,97920.59
2023-05-23T10:09:11.797Z,97913.66
2023-05-23T10:12:24.138Z,97916.84
2023-05-23T10:14:57.814Z,97905.16
2023-05-23T10:17:35.010Z,97903.53
2023-05-23T10:20:10.458Z,97915.59
2023-05-23T10:22:43.773Z,97911.19
2023-05-23T10:25:14.124Z,97915.63
2023-05-23T10:27:45.188Z,97909.91
2023-05-23T10:30:15.929Z,97915.16
2023-05-23T10:32:45.577Z,97903.41
2023-05-23T10:35:25.692Z,97914.63
2023-05-23T10:38:07.803Z,97912.22
2023-05-23T10:40:52.558Z,97883.75
2023-05-23T10:43:29.773Z,97914.00
2023-05-23T10:45:59.769Z,97906.66
2023-05-23T10:48:35.759Z,97920.19
2023-05-23T10:51:12.698Z,97896.13
2023-05-23T10:53:45.495Z,97918.75
2023-05-23T10:56:26.668Z,97916.50
2023-05-23T10:59:03.076Z,97924.03
2023-05-23T11:01:33.395Z,97914.94
2023-05-23T11:04:14.772Z,97927.44
2023-05-23T11:06:48.927Z,97927.00
2023-05-23T11:09:22.467Z,97927.94
2023-05-23T11:12:01.295Z,97931.13
2023-05-23T11:14:36.408Z,97931.94
2023-05-23T11:17:19.759Z,97923.63
2023-05-23T11:20:01.097Z,97929.91
2023-05-23T11:22:32.088Z,97937.31
2023-05-23T11:25:02.718Z,97934.94
2023-05-23T11:27:35.835Z,97933.81
2023-05-23T11:30:10.887Z,97936.53
2023-05-23T11:32:41.127Z,97944.00
2023-05-23T11:35:11.659Z,97941.16
2023-05-23T11:37:42.396Z,97929.88
2023-05-23T11:40:33.106Z,97938.59
2023-05-23T11:43:03.066Z,97941.88
2023-05-23T11:45:36.685Z,97929.75
2023-05-23T11:48:19.822Z,97932.16
2023-05-23T11:50:51.820Z,97924.47
2023-05-23T11:53:25.934Z,97907.59
2023-05-23T11:56:01.066Z,97936.72
2023-05-23T11:58:33.200Z,97937.72
2023-05-23T12:01:06.532Z,97933.25
2023-05-23T12:03:36.166Z,97945.56
2023-05-23T12:06:06.416Z,97941.91
2023-05-23T12:08:37.915Z,97930.81
2023-05-23T12:11:07.788Z,97922.94
2023-05-23T12:13:36.413Z,97934.44
2023-05-23T12:16:06.365Z,97935.03
2023-05-23T12:18:39.259Z,97911.25
2023-05-23T12:21:10.284Z,97934.91
2023-05-23T12:23:43.001Z,97912.09
2023-05-23T12:26:12.647Z,97935.19
2023-05-23T12:28:43.687Z,97928.63
2023-05-23T12:31:18.422Z,97936.06
2023-05-23T12:33:51.436Z,97926.28
2023-05-23T12:36:25.284Z,97931.06
2023-05-23T12:39:03.604Z,97947.09
2023-05-23T12:41:34.517Z,97909.41
2023-05-23T12:44:05.828Z,97939.63
2023-05-23T12:46:48.813Z,97949.16
2023-05-23T12:49:30.587Z,97952.28
2023-05-23T12:52:02.304Z,97953.22
2023-05-23T12:54:33.035Z,97951.44
2023-05-23T12:57:02.369Z,97955.19
2023-05-23T12:59:31.984Z,97948.75
2023-05-23T13:02:03.184Z,97950.78
2023-05-23T13:04:32.958Z,97951.91
2023-05-23T13:07:02.407Z,97957.78
2023-05-23T13:09:33.048Z,97962.59
2023-05-23T13:12:01.988Z,97956.28
2023-05-23T13:14:31.548Z,97964.38
2023-05-23T13:17:01.340Z,97963.63
2023-05-23T13:19:32.035Z,97960.84
2023-05-23T13:22:01.551Z,97951.69
2023-05-23T13:24:31.948Z,97939.94
2023-05-23T13:27:01.169Z,97962.59
2023-05-23T13:29:31.169Z,97959.66
2023-05-23T13:32:04.156Z,97960.94
2023-05-23T13:34:35.755Z,97954.28
2023-05-23T13:37:06.161Z,97964.38
2023-05-23T13:39:36.462Z,97968.75
2023-05-23T13:42:09.228Z,97961.03
2023-05-23T13:44:43.384Z,97974.03
2023-05-23T13:47:13.454Z,97971.59
2023-05-23T13:49:45.073Z,97967.19
2023-05-23T13:52:15.023Z,97967.91
2023-05-23T13:54:46.784Z,97945.19
2023-05-23T13:57:16.225Z,97949.22
2023-05-23T13:59:45.132Z,97950.88
2023-05-23T14:02:15.537Z,97965.78
2023-05-23T14:04:48.585Z,97962.47
2023-05-23T14:07:19.349Z,97951.81
2023-05-23T14:09:50.055Z,97960.75
2023-05-23T14:12:20.939Z,97963.53
2023-05-23T14:14:50.251Z,97959.22
2023-05-23T14:17:21.065Z,97951.38
2023-05-23T14:19:52.776Z,97938.69
2023-05-23T14:22:23.047Z,97971.66
2023-05-23T14:24:54.579Z,97976.91
2023-05-23T14:27:23.958Z,97979.16
2023-05-23T14:29:54.419Z,97978.38
2023-05-23T14:32:23.615Z,97973.91
2023-05-23T14:34:52.634Z,97972.41
2023-05-23T14:37:37.326Z,97969.91
2023-05-23T14:40:08.932Z,97963.63
2023-05-23T14:42:38.204Z,97963.84
2023-05-23T14:45:09.288Z,97966.19
2023-05-23T14:47:38.310Z,97966.06
2023-05-23T14:50:08.102Z,97966.53
2023-05-23T14:52:37.114Z,97958.72
2023-05-23T14:55:08.434Z,97962.47
2023-05-23T14:57:38.990Z,97957.22
2023-05-23T15:00:09.104Z,97965.09
2023-05-23T15:02:37.894Z,97968.31
2023-05-23T15:05:07.553Z,97937.66
2023-05-23T15:07:36.270Z,97962.38
2023-05-23T15:10:05.008Z,97965.00
2023-05-23T15:12:35.494Z,97960.66
2023-05-23T15:15:05.424Z,97962.19
2023-05-23T15:17:35.884Z,97933.19
2023-05-23T15:20:07.080Z,97956.09
2023-05-23T15:22:39.797Z,97960.44
2023-05-23T15:25:10.143Z,97939.53
2023-05-23T15:27:41.779Z,97953.00
2023-05-23T15:30:12.943Z,97936.66
2023-05-23T15:32:44.408Z,97957.97
2023-05-23T15:35:15.022Z,97962.78
2023-05-23T15:37:45.902Z,97960.75
2023-05-23T15:40:16.281Z,97975.75
2023-05-23T15:42:51.886Z,97978.88
2023-05-23T15:45:22.675Z,97974.19
2023-05-23T15:47:57.851Z,97972.00
2023-05-23T15:50:28.318Z,97974.44
2023-05-23T15:52:59.173Z,97972.91
2023-05-23T15:55:28.513Z,97980.66
2023-05-23T15:57:58.594Z,97983.00
2023-05-23T16:00:31.415Z,97992.13
2023-05-23T16:03:01.666Z,97998.00
2023-05-23T16:05:36.598Z,97991.75
2023-05-23T16:08:10.242Z,97992.22
2023-05-23T16:10:39.277Z,97999.88
2023-05-23T16:13:10.375Z,98005.72
2023-05-23T16:15:39.589Z,97998.09
2023-05-23T16:18:08.875Z,98010.34
2023-05-23T16:20:39.468Z,98013.50
2023-05-23T16:23:08.849Z,97972.06
2023-05-23T16:25:45.858Z,98003.69
2023-05-23T16:28:19.139Z,98012.91
2023-05-23T16:30:48.235Z,98015.16
2023-05-23T16:33:18.239Z,98023.72
2023-05-23T16:35:48.269Z,98016.97
2023-05-23T16:38:17.477Z,98018.13
2023-05-23T16:40:48.517Z,98019.25
2023-05-23T16:43:18.993Z,98009.00
2023-05-23T16:45:49.697Z,98021.19
2023-05-23T16:48:20.029Z,98021.66
2023-05-23T16:50:48.644Z,98025.19
2023-05-23T16:53:18.229Z,98022.00
2023-05-23T16:55:48.110Z,98029.53
2023-05-23T16:58:20.940Z,98028.75
2023-05-23T17:00:50.174Z,98035.31
2023-05-23T17:03:19.237Z,98031.97
2023-05-23T17:05:48.797Z,98035.69
2023-05-23T17:08:17.433Z,98039.47
2023-05-23T17:10:47.389Z,98044.94
2023-05-23T17:13:18.067Z,98032.25
2023-05-23T17:15:48.406Z,98022.19
2023-05-23T17:18:18.280Z,98048.91
2023-05-23T17:20:47.823Z,98048.94
2023-05-23T17:23:23.687Z,98039.00
2023-05-23T17:25:54.520Z,98034.41
2023-05-23T17:28:25.163Z,98064.47
2023-05-23T17:30:55.672Z,98066.84
2023-05-23T17:33:24.536Z,98068.00
2023-05-23T17:35:53.515Z,98066.31
2023-05-23T17:38:23.303Z,98068.28
2023-05-23T17:40:53.252Z,98075.28
2023-05-23T17:43:24.692Z,98076.16
2023-05-23T17:45:55.262Z,98081.91
2023-05-23T17:48:42.516Z,98075.25
2023-05-23T17:51:16.871Z,98094.78
2023-05-23T17:53:46.529Z,98088.66
2023-05-23T17:56:16.293Z,98091.81
2023-05-23T17:58:53.953Z,98101.25
2023-05-23T18:01:27.738Z,98101.25
2023-05-23T18:04:01.004Z,98091.03
2023-05-23T18:06:30.723Z,98099.22
2023-05-23T18:09:03.379Z,98107.88
2023-05-23T18:11:33.339Z,98099.63
2023-05-23T18:14:04.601Z,98107.47
2023-05-23T18:16:34.667Z,98100.00
2023-05-23T18:19:04.258Z,98105.56
2023-05-23T18:21:34.961Z,98111.19
2023-05-23T18:24:04.734Z,98111.66
2023-05-23T18:26:33.765Z,98119.28
2023-05-23T18:29:05.098Z,98135.31
2023-05-23T18:31:34.133Z,98129.19
2023-05-23T18:34:02.879Z,98130.47
2023-05-23T18:36:32.708Z,98129.66
2023-05-23T18:39:01.737Z,98125.50
2023-05-23T18:41:30.738Z,98129.63
2023-05-23T18:43:59.804Z,98110.38
2023-05-23T18:46:30.463Z,98131.16
2023-05-23T18:48:59.897Z,98118.56
2023-05-23T18:51:29.637Z,98137.41
2023-05-23T18:53:58.025Z,98145.41
2023-05-23T18:56:27.329Z,98130.41
2023-05-23T18:58:57.617Z,98147.47
2023-05-23T19:01:26.092Z,98147.34
2023-05-23T19:03:58.104Z,98154.88
2023-05-23T19:06:30.807Z,98152.94
2023-05-23T19:09:00.392Z,98153.31
2023-05-23T19:11:30.024Z,98166.31
2023-05-23T19:13:58.526Z,98133.78
2023-05-23T19:16:27.618Z,98155.81
2023-05-23T19:18:59.119Z,98173.00
2023-05-23T19:21:29.107Z,98179.56
2023-05-23T19:23:58.012Z,98188.25
2023-05-23T19:26:26.816Z,98189.94
2023-05-23T19:28:56.036Z,98185.09
2023-05-23T19:31:24.614Z,98173.22
2023-05-23T19:33:53.703Z,98171.66
2023-05-23T19:36:24.302Z,98199.09
2023-05-23T19:38:54.165Z,98194.84
2023-05-23T19:41:25.772Z,98202.59
2023-05-23T19:43:54.447Z,98187.06
2023-05-23T19:46:22.877Z,98179.84
2023-05-23T19:48:52.054Z,98197.84
2023-05-23T19:51:21.350Z,98211.97
2023-05-23T19:53:52.817Z,98215.59
2023-05-23T19:56:22.424Z,98218.34
2023-05-23T19:58:50.975Z,98228.53
2023-05-23T20:01:20.105Z,98182.31
2023-05-23T20:03:50.709Z,98225.38
2023-05-23T20:06:20.694Z,98228.28
2023-05-23T20:08:51.749Z,98224.94
2023-05-23T20:11:21.502Z,98238.00
2023-05-23T20:13:50.142Z,98243.19
2023-05-23T20:16:18.446Z,98243.88
2023-05-23T20:18:47.502Z,98245.63
2023-05-23T20:21:19.755Z,98233.75
2023-05-23T20:23:49.360Z,98259.69
2023-05-23T20:26:21.185Z,98259.69
2023-05-23T20:28:50.498Z,98256.13
2023-05-23T20:31:19.242Z,98256.69
2023-05-23T20:33:50.856Z,98254.44
2023-05-23T20:36:21.317Z,98276.75
2023-05-23T20:38:50.969Z,98287.09
2023-05-23T20:41:22.240Z,98286.69
2023-05-23T20:43:51.339Z,98266.59
2023-05-23T20:46:19.882Z,98286.56
2023-05-23T20:48:48.711Z,98298.72
2023-05-23T20:51:17.920Z,98304.41
2023-05-23T20:53:46.497Z,98308.66
2023-05-23T20:56:15.081Z,98306.03
2023-05-23T20:58:46.124Z,98304.59
2023-05-23T21:01:15.325Z,98315.81
2023-05-23T21:03:44.231Z,98311.84
2023-05-23T21:06:12.852Z,98313.94
2023-05-23T21:08:41.408Z,98312.13
2023-05-23T21:11:09.973Z,98290.56
2023-05-23T21:13:40.314Z,98315.03
2023-05-23T21:16:14.837Z,98308.25
2023-05-23T21:18:43.757Z,98295.53
2023-05-23T21:21:12.324Z,98294.78
2023-05-23T21:23:41.133Z,98315.25
2023-05-23T21:26:13.207Z,98311.06
2023-05-23T21:28:42.895Z,98310.22
2023-05-23T21:31:16.294Z,98303.28
2023-05-23T21:33:46.724Z,98309.28
2023-05-23T21:36:15.973Z,98310.38
2023-05-23T21:38:44.979Z,98312.50
2023-05-23T21:41:13.724Z,98295.16
2023-05-23T21:43:42.410Z,98311.25
2023-05-23T21:46:11.366Z,98310.66
2023-05-23T21:48:41.237Z,98310.75
2023-05-23T21:51:09.953Z,98308.44
2023-05-23T21:53:38.729Z,98304.03
2023-05-23T21:56:08.136Z,98293.72
2023-05-23T21:58:36.887Z,98297.03
2023-05-23T22:01:05.456Z,98295.59
2023-05-23T22:03:34.450Z,98291.44
2023-05-23T22:06:04.954Z,98282.91
2023-05-23T22:08:33.518Z,98284.88
2023-05-23T22:11:02.538Z,98295.13
2023-05-23T22:13:31.291Z,98301.28
2023-05-23T22:16:00.071Z,98291.31
2023-05-23T22:18:34.558Z,98277.00
2023-05-23T22:21:13.869Z,98297.94
2023-05-23T22:23:43.187Z,98300.97
2023-05-23T22:26:12.791Z,98303.38
2023-05-23T22:28:41.708Z,98302.53
2023-05-23T22:31:12.837Z,98299.31
2023-05-23T22:33:46.182Z,98295.91
2023-05-23T22:36:17.852Z,98310.34
2023-05-23T22:38:47.324Z,98307.69
2023-05-23T22:41:16.191Z,98294.81
2023-05-23T22:43:44.516Z,98299.22
2023-05-23T22:46:12.966Z,98308.53
2023-05-23T22:48:41.649Z,98304.47
2023-05-23T22:51:09.936Z,98301.16
2023-05-23T22:53:39.765Z,98280.03
2023-05-23T22:56:09.023Z,98304.56
2023-05-23T22:58:37.572Z,98299.53
2023-05-23T23:01:06.864Z,98289.47
2023-05-23T23:03:35.536Z,98287.75
2023-05-23T23:06:06.246Z,98294.63
2023-05-23T23:08:35.649Z,98292.84
2023-05-23T23:11:06.116Z,98300.78
2023-05-23T23:13:34.479Z,98283.97
2023-05-23T23:16:03.044Z,98301.72
2023-05-23T23:18:31.544Z,98301.69
2023-05-23T23:21:00.459Z,98273.16
2023-05-23T23:23:29.274Z,98299.38
2023-05-23T23:25:59.626Z,98276.50
2023-05-23T23:28:29.669Z,98306.03
2023-05-23T23:30:58.304Z,98304.28
2023-05-23T23:33:26.997Z,98310.38
2023-05-23T23:35:56.442Z,98306.72
2023-05-23T23:38:25.242Z,98298.28
2023-05-23T23:40:53.648Z,98309.13
2023-05-23T23:43:22.000Z,98308.50
2023-05-23T23:45:52.145Z,98316.25
2023-05-23T23:48:20.800Z,98307.19
2023-05-23T23:50:50.278Z,98301.06
2023-05-23T23:53:21.785Z,98304.97
2023-05-23T23:55:51.828Z,98296.66
2023-05-23T23:58:20.338Z,98303.53
